createdAt,value
2022-08-02T10:07:15.782Z,1009.25
2022-08-02T10:16:01.996Z,1009.26
2022-08-02T10:17:01.968Z,1009.23
2022-08-02T10:45:14.229Z,1009.00
2022-08-02T10:46:14.216Z,1008.98
2022-08-02T10:47:15.196Z,1008.95
2022-08-02T10:48:14.202Z,1008.94
2022-08-02T10:49:38.098Z,1008.93
2022-08-02T10:50:14.269Z,1008.97
2022-08-02T10:51:14.140Z,1008.98
2022-08-02T10:52:14.478Z,1008.95
2022-08-02T10:53:14.135Z,1008.94
2022-08-02T10:54:14.115Z,1008.86
2022-08-02T10:55:14.913Z,1008.89
2022-08-02T10:56:14.085Z,1008.87
2022-08-02T10:57:15.354Z,1008.80
2022-08-02T10:58:14.086Z,1008.87
2022-08-02T10:59:14.058Z,1008.82
2022-08-02T11:00:17.312Z,1008.82
2022-08-02T11:01:14.087Z,1008.83
2022-08-02T11:02:14.395Z,1008.83
2022-08-02T11:03:14.013Z,1008.76
2022-08-02T11:04:14.013Z,1008.85
2022-08-02T11:05:13.993Z,1008.90
2022-08-02T11:06:24.701Z,1008.90
2022-08-02T11:07:13.964Z,1008.99
2022-08-02T11:08:13.964Z,1008.90
2022-08-02T11:09:13.960Z,1008.98
2022-08-02T11:10:13.932Z,1008.97
2022-08-02T11:11:13.923Z,1008.97
2022-08-02T11:12:14.252Z,1008.92
2022-08-02T11:13:13.898Z,1008.91
2022-08-02T11:14:13.903Z,1008.87
2022-08-02T11:15:13.878Z,1008.86
2022-08-02T11:16:13.870Z,1008.81
2022-08-02T11:17:13.868Z,1008.83
2022-08-02T11:18:13.856Z,1008.82
2022-08-02T11:19:13.850Z,1008.84
2022-08-02T11:20:13.827Z,1008.75
2022-08-02T11:21:13.815Z,1008.81
2022-08-02T11:22:14.191Z,1008.84
2022-08-02T11:23:13.806Z,1008.81
2022-08-02T11:24:13.832Z,1008.77
2022-08-02T11:25:13.776Z,1008.74
2022-08-02T11:26:13.765Z,1008.67
2022-08-02T11:27:13.784Z,1008.69
2022-08-02T11:28:13.755Z,1008.65
2022-08-02T11:29:15.430Z,1008.68
2022-08-02T11:30:13.744Z,1008.65
2022-08-02T11:31:13.732Z,1008.63
2022-08-02T11:32:14.203Z,1008.64
2022-08-02T11:33:13.695Z,1008.66
2022-08-02T11:34:36.727Z,1008.68
2022-08-02T11:35:13.684Z,1008.69
2022-08-02T11:36:13.681Z,1008.66
2022-08-02T11:37:13.660Z,1008.65
2022-08-02T11:38:13.658Z,1008.72
2022-08-02T11:39:15.957Z,1008.67
2022-08-02T11:40:19.399Z,1008.71
2022-08-02T11:41:13.615Z,1008.69
2022-08-02T11:42:13.920Z,1008.73
2022-08-02T11:43:13.595Z,1008.72
2022-08-02T11:44:13.602Z,1008.72
2022-08-02T11:45:13.586Z,1008.72
2022-08-02T11:46:13.575Z,1008.73
2022-08-02T11:47:13.556Z,1008.71
2022-08-02T11:48:13.550Z,1008.64
2022-08-02T11:49:13.610Z,1008.64
2022-08-02T11:50:13.540Z,1008.63
2022-08-02T11:51:13.532Z,1008.66
2022-08-02T11:52:13.776Z,1008.70
2022-08-02T11:53:13.501Z,1008.51
2022-08-02T11:54:13.523Z,1008.49
2022-08-02T11:55:13.485Z,1008.64
2022-08-02T11:56:13.486Z,1008.54
2022-08-02T11:57:17.082Z,1008.50
2022-08-02T11:58:13.470Z,1008.51
2022-08-02T11:59:14.688Z,1008.52
2022-08-02T12:00:13.481Z,1008.61
2022-08-02T12:01:13.435Z,1008.43
2022-08-02T12:02:13.883Z,1008.54
2022-08-02T12:03:16.509Z,1008.53
2022-08-02T12:04:13.428Z,1008.68
2022-08-02T12:05:13.388Z,1008.55
2022-08-02T12:06:16.711Z,1008.57
2022-08-02T12:07:14.906Z,1008.63
2022-08-02T12:08:13.380Z,1008.53
2022-08-02T12:09:18.165Z,1008.48
2022-08-02T12:10:16.908Z,1008.58
2022-08-02T12:11:13.340Z,1008.59
2022-08-02T12:12:13.770Z,1008.57
2022-08-02T12:13:13.313Z,1008.57
2022-08-02T12:14:13.324Z,1008.59
2022-08-02T12:15:13.338Z,1008.61
2022-08-02T12:16:13.290Z,1008.61
2022-08-02T12:17:13.270Z,1008.63
2022-08-02T12:18:13.273Z,1008.59
2022-08-02T12:19:14.432Z,1008.60
2022-08-02T12:20:13.253Z,1008.62
2022-08-02T12:21:13.233Z,1008.46
2022-08-02T12:22:13.499Z,1008.45
2022-08-02T12:23:13.224Z,1008.58
2022-08-02T12:24:13.229Z,1008.53
2022-08-02T12:25:13.196Z,1008.52
2022-08-02T12:26:16.154Z,1008.50
2022-08-02T12:27:13.180Z,1008.48
2022-08-02T12:28:17.214Z,1008.53
2022-08-02T12:29:13.174Z,1008.53
2022-08-02T12:30:13.150Z,1008.57
2022-08-02T12:31:13.151Z,1008.61
2022-08-02T12:32:13.618Z,1008.61
2022-08-02T12:33:13.428Z,1008.57
2022-08-02T12:34:13.127Z,1008.57
2022-08-02T12:35:13.106Z,1008.59
2022-08-02T12:36:13.108Z,1008.57
2022-08-02T12:37:13.087Z,1008.49
2022-08-02T12:38:13.089Z,1008.47
2022-08-02T12:39:13.080Z,1008.47
2022-08-02T12:40:13.064Z,1008.51
2022-08-02T12:41:31.114Z,1008.47
2022-08-02T12:42:13.342Z,1008.49
2022-08-02T12:43:13.048Z,1008.44
2022-08-02T12:44:13.044Z,1008.42
2022-08-02T12:45:13.021Z,1008.43
2022-08-02T12:46:13.011Z,1008.43
2022-08-02T12:47:13.013Z,1008.40
2022-08-02T12:48:13.004Z,1008.43
2022-08-02T12:49:18.343Z,1008.44
2022-08-02T12:50:12.977Z,1008.42
2022-08-02T12:51:12.977Z,1008.43
2022-08-02T12:52:13.173Z,1008.44
2022-08-02T12:53:12.952Z,1008.43
2022-08-02T12:54:12.962Z,1008.44
2022-08-02T12:55:12.938Z,1008.44
2022-08-02T12:56:12.928Z,1008.41
2022-08-02T12:57:12.954Z,1008.42
2022-08-02T12:58:12.910Z,1008.41
2022-08-02T12:59:12.919Z,1008.37
2022-08-02T13:00:12.917Z,1008.36
2022-08-02T13:01:12.886Z,1008.34
2022-08-02T13:02:13.652Z,1008.26
2022-08-02T13:04:11.009Z,1008.25
2022-08-02T13:04:14.086Z,1008.25
2022-08-02T13:05:12.874Z,1008.25
2022-08-02T13:06:40.735Z,1008.25
2022-08-02T13:07:12.848Z,1008.29
2022-08-02T13:08:12.840Z,1008.25
2022-08-02T13:09:12.825Z,1008.21
2022-08-02T13:10:12.850Z,1008.23
2022-08-02T13:11:12.812Z,1008.27
2022-08-02T13:12:13.156Z,1008.22
2022-08-02T13:13:12.795Z,1008.24
2022-08-02T13:14:12.799Z,1008.25
2022-08-02T13:15:49.107Z,1008.17
2022-08-02T13:16:12.774Z,1008.19
2022-08-02T13:17:12.774Z,1008.17
2022-08-02T13:18:12.758Z,1008.16
2022-08-02T13:19:12.759Z,1008.19
2022-08-02T13:20:12.747Z,1008.16
2022-08-02T13:21:19.723Z,1008.15
2022-08-02T13:22:13.352Z,1008.15
2022-08-02T13:23:20.947Z,1008.15
2022-08-02T13:24:32.951Z,1008.12
2022-08-02T13:25:12.713Z,1008.15
2022-08-02T13:26:12.686Z,1008.14
2022-08-02T13:27:12.684Z,1008.14
2022-08-02T13:28:12.681Z,1008.09
2022-08-02T13:29:12.660Z,1008.13
2022-08-02T13:30:12.680Z,1008.12
2022-08-02T13:31:35.126Z,1008.06
2022-08-02T13:32:12.802Z,1008.12
2022-08-02T13:33:12.631Z,1008.04
2022-08-02T13:34:12.623Z,1008.07
2022-08-02T13:35:17.774Z,1008.03
2022-08-02T13:36:12.611Z,1008.05
2022-08-02T13:37:12.614Z,1007.99
2022-08-02T13:38:12.627Z,1007.98
2022-08-02T13:39:12.594Z,1007.97
2022-08-02T13:40:21.721Z,1007.94
2022-08-02T13:41:12.575Z,1007.93
2022-08-02T13:42:16.864Z,1008.00
2022-08-02T13:43:12.603Z,1007.97
2022-08-02T13:44:12.552Z,1008.02
2022-08-02T13:45:14.134Z,1007.99
2022-08-02T13:46:12.547Z,1008.00
2022-08-02T13:47:12.541Z,1007.94
2022-08-02T13:48:17.045Z,1007.94
2022-08-02T13:49:17.929Z,1007.94
2022-08-02T13:50:12.565Z,1007.89
2022-08-02T13:51:14.885Z,1007.93
2022-08-02T13:52:12.722Z,1007.94
2022-08-02T13:53:12.497Z,1007.94
2022-08-02T13:54:12.485Z,1007.97
2022-08-02T13:55:12.865Z,1007.95
2022-08-02T13:56:12.459Z,1007.97
2022-08-02T13:57:12.468Z,1007.98
2022-08-02T13:58:12.456Z,1007.98
2022-08-02T13:59:54.251Z,1007.91
2022-08-02T14:00:12.434Z,1007.94
2022-08-02T14:01:12.492Z,1007.96
2022-08-02T14:02:12.794Z,1007.94
2022-08-02T14:03:12.519Z,1007.94
2022-08-02T14:04:12.401Z,1007.88
2022-08-02T14:05:12.402Z,1007.82
2022-08-02T14:06:12.403Z,1007.79
2022-08-02T14:07:12.384Z,1007.78
2022-08-02T14:08:16.355Z,1007.72
2022-08-02T14:09:15.737Z,1007.74
2022-08-02T14:10:12.369Z,1007.81
2022-08-02T14:11:12.368Z,1007.80
2022-08-02T14:12:12.620Z,1007.78
2022-08-02T14:13:12.343Z,1007.82
2022-08-02T14:14:15.852Z,1007.75
2022-08-02T14:15:12.347Z,1007.71
2022-08-02T14:16:12.336Z,1007.70
2022-08-02T14:17:12.365Z,1007.70
2022-08-02T14:18:12.316Z,1007.69
2022-08-02T14:19:16.852Z,1007.75
2022-08-02T14:20:17.967Z,1007.74
2022-08-02T14:21:12.310Z,1007.76
2022-08-02T14:22:12.582Z,1007.77
2022-08-02T14:23:12.280Z,1007.72
2022-08-02T14:24:12.276Z,1007.76
2022-08-02T14:25:12.260Z,1007.80
2022-08-02T14:26:27.413Z,1007.77
2022-08-02T14:27:12.260Z,1007.79
2022-08-02T14:28:12.254Z,1007.77
2022-08-02T14:29:12.232Z,1007.76
2022-08-02T14:30:12.244Z,1007.79
2022-08-02T14:31:12.235Z,1007.78
2022-08-02T14:32:12.454Z,1007.75
2022-08-02T14:33:12.217Z,1007.73
2022-08-02T14:34:12.208Z,1007.73
2022-08-02T14:35:12.210Z,1007.75
2022-08-02T14:36:12.200Z,1007.75
2022-08-02T14:37:12.182Z,1007.71
2022-08-02T14:38:12.197Z,1007.71
2022-08-02T14:39:12.175Z,1007.75
2022-08-02T14:40:27.689Z,1007.72
2022-08-02T14:41:12.186Z,1007.73
2022-08-02T14:42:12.475Z,1007.71
2022-08-02T14:43:15.356Z,1007.71
2022-08-02T14:44:12.151Z,1007.69
2022-08-02T14:45:12.144Z,1007.75
2022-08-02T14:46:12.144Z,1007.75
2022-08-02T14:47:12.140Z,1007.72
2022-08-02T14:48:12.136Z,1007.75
2022-08-02T14:49:14.146Z,1007.75
2022-08-02T14:50:14.078Z,1007.74
2022-08-02T14:51:12.121Z,1007.73
2022-08-02T14:52:12.394Z,1007.71
2022-08-02T14:53:13.162Z,1007.77
2022-08-02T14:54:12.101Z,1007.72
2022-08-02T14:55:17.036Z,1007.72
2022-08-02T14:56:12.098Z,1007.75
2022-08-02T14:57:12.081Z,1007.70
2022-08-02T14:58:12.081Z,1007.69
2022-08-02T14:59:12.085Z,1007.65
2022-08-02T15:00:12.072Z,1007.63
2022-08-02T15:01:12.190Z,1007.61
2022-08-02T15:02:13.964Z,1007.65
2022-08-02T15:03:12.081Z,1007.62
2022-08-02T15:04:12.059Z,1007.66
2022-08-02T15:05:12.057Z,1007.67
2022-08-02T15:06:12.072Z,1007.67
2022-08-02T15:07:12.052Z,1007.66
2022-08-02T15:08:12.052Z,1007.61
2022-08-02T15:09:12.059Z,1007.62
2022-08-02T15:10:12.063Z,1007.60
2022-08-02T15:11:12.061Z,1007.52
2022-08-02T15:12:12.361Z,1007.50
2022-08-02T15:13:12.045Z,1007.44
2022-08-02T15:14:12.037Z,1007.40
2022-08-02T15:15:12.042Z,1007.34
2022-08-02T15:16:12.049Z,1007.36
2022-08-02T15:17:12.030Z,1007.32
2022-08-02T15:18:12.022Z,1007.35
2022-08-02T15:19:12.020Z,1007.36
2022-08-02T15:20:24.738Z,1007.39
2022-08-02T15:21:40.355Z,1007.39
2022-08-02T15:22:16.202Z,1007.40
2022-08-02T15:23:12.006Z,1007.45
2022-08-02T15:24:12.009Z,1007.52
2022-08-02T15:25:14.623Z,1007.60
2022-08-02T15:26:12.023Z,1007.66
2022-08-02T15:27:11.991Z,1007.72
2022-08-02T15:28:11.990Z,1007.78
2022-08-02T15:29:11.987Z,1007.81
2022-08-02T15:30:11.992Z,1007.78
2022-08-02T15:31:12.010Z,1007.77
2022-08-02T15:32:12.545Z,1007.76
2022-08-02T15:33:11.991Z,1007.73
2022-08-02T15:34:11.985Z,1007.73
2022-08-02T15:35:11.984Z,1007.81
2022-08-02T15:36:11.993Z,1007.79
2022-08-02T15:37:11.977Z,1007.79
2022-08-02T15:38:11.977Z,1007.71
2022-08-02T15:39:11.977Z,1007.76
2022-08-02T15:40:11.975Z,1007.73
2022-08-02T15:41:11.984Z,1007.75
2022-08-02T15:42:12.304Z,1007.73
2022-08-02T15:43:11.977Z,1007.75
2022-08-02T15:44:11.956Z,1007.49
2022-08-02T15:45:14.621Z,1007.36
2022-08-02T15:46:11.965Z,1007.40
2022-08-02T15:47:11.955Z,1007.34
2022-08-02T15:48:11.951Z,1007.47
2022-08-02T15:49:12.043Z,1007.57
2022-08-02T15:50:11.947Z,1007.92
2022-08-02T15:51:11.961Z,1007.92
2022-08-02T15:52:12.261Z,1008.08
2022-08-02T15:53:11.941Z,1008.22
2022-08-02T15:54:11.941Z,1008.29
2022-08-02T15:55:11.950Z,1008.38
2022-08-02T15:56:13.107Z,1008.56
2022-08-02T15:57:11.941Z,1008.48
2022-08-02T15:58:16.809Z,1008.24
2022-08-02T15:59:11.943Z,1008.13
2022-08-02T16:00:18.122Z,1008.09
2022-08-02T16:01:12.004Z,1007.98
2022-08-02T16:02:12.292Z,1008.07
2022-08-02T16:03:11.928Z,1007.98
2022-08-02T16:04:11.926Z,1007.88
2022-08-02T16:05:14.233Z,1007.83
2022-08-02T16:06:11.930Z,1007.82
2022-08-02T16:07:11.909Z,1007.74
2022-08-02T16:08:11.915Z,1007.66
2022-08-02T16:09:11.915Z,1007.63
2022-08-02T16:10:11.919Z,1007.54
2022-08-02T16:11:11.962Z,1007.58
2022-08-02T16:12:12.164Z,1007.52
2022-08-02T16:13:11.902Z,1007.46
2022-08-02T16:14:11.894Z,1007.50
2022-08-02T16:15:11.910Z,1007.51
2022-08-02T16:16:11.912Z,1007.43
2022-08-02T16:17:11.894Z,1007.52
2022-08-02T16:18:11.906Z,1007.49
2022-08-02T16:19:46.587Z,1007.47
2022-08-02T16:20:11.900Z,1007.46
2022-08-02T16:21:11.904Z,1007.45
2022-08-02T16:22:12.369Z,1007.45
2022-08-02T16:23:11.892Z,1007.37
2022-08-02T16:24:11.898Z,1007.30
2022-08-02T16:25:17.357Z,1007.30
2022-08-02T16:26:11.906Z,1007.25
2022-08-02T16:27:11.894Z,1007.28
2022-08-02T16:28:11.897Z,1007.20
2022-08-02T16:29:11.887Z,1007.18
2022-08-02T16:30:11.894Z,1007.30
2022-08-02T16:31:11.923Z,1007.29
2022-08-02T16:32:12.115Z,1007.24
2022-08-02T16:33:11.883Z,1007.25
2022-08-02T16:34:11.900Z,1007.26
2022-08-02T16:35:11.889Z,1007.29
2022-08-02T16:36:11.899Z,1007.19
2022-08-02T16:37:12.126Z,1007.20
2022-08-02T16:38:11.878Z,1007.23
2022-08-02T16:39:11.943Z,1007.16
2022-08-02T16:40:11.921Z,1007.16
2022-08-02T16:41:11.879Z,1007.12
2022-08-02T16:42:11.869Z,1007.16
2022-08-02T16:43:11.878Z,1007.17
2022-08-02T16:44:11.875Z,1007.14
2022-08-02T16:45:11.862Z,1007.09
2022-08-02T16:46:11.872Z,1007.16
2022-08-02T16:47:12.419Z,1007.09
2022-08-02T16:48:11.857Z,1007.05
2022-08-02T16:49:56.585Z,1007.03
2022-08-02T16:50:12.018Z,1007.06
2022-08-02T16:51:13.635Z,1007.06
2022-08-02T16:52:11.850Z,1007.01
2022-08-02T16:53:15.692Z,1006.96
2022-08-02T16:54:11.845Z,1006.96
2022-08-02T16:55:11.849Z,1006.93
2022-08-02T16:56:11.845Z,1006.93
2022-08-02T16:57:14.393Z,1006.90
2022-08-02T16:58:11.838Z,1006.91
2022-08-02T16:59:12.810Z,1006.92
2022-08-02T17:00:11.830Z,1006.93
2022-08-02T17:01:11.890Z,1006.89
2022-08-02T17:02:18.509Z,1006.88
2022-08-02T17:03:13.164Z,1006.86
2022-08-02T17:04:11.814Z,1006.85
2022-08-02T17:05:14.451Z,1006.77
2022-08-02T17:06:11.816Z,1006.85
2022-08-02T17:08:08.274Z,1006.88
2022-08-02T17:08:17.359Z,1006.95
2022-08-02T17:09:11.806Z,1006.92
2022-08-02T17:10:11.796Z,1006.88
2022-08-02T17:11:11.787Z,1006.86
2022-08-02T17:12:15.816Z,1006.87
2022-08-02T17:13:12.266Z,1006.88
2022-08-02T17:14:11.785Z,1006.84
2022-08-02T17:16:08.035Z,1006.81
2022-08-02T17:17:14.527Z,1006.72
2022-08-02T17:18:11.769Z,1006.77
2022-08-02T17:19:11.768Z,1006.74
2022-08-02T17:20:11.751Z,1006.66
2022-08-02T17:21:11.763Z,1006.65
2022-08-02T17:22:11.989Z,1006.67
2022-08-02T17:23:16.391Z,1006.64
2022-08-02T17:24:11.743Z,1006.74
2022-08-02T17:25:11.740Z,1006.77
2022-08-02T17:26:13.293Z,1006.78
2022-08-02T17:27:11.921Z,1006.73
2022-08-02T17:28:11.709Z,1006.72
2022-08-02T17:29:15.569Z,1006.68
2022-08-02T17:30:11.708Z,1006.71
2022-08-02T17:31:11.695Z,1006.70
2022-08-02T17:32:11.834Z,1006.70
2022-08-02T17:33:11.683Z,1006.72
2022-08-02T17:34:11.705Z,1006.63
2022-08-02T17:35:11.686Z,1006.61
2022-08-02T17:36:11.664Z,1006.60
2022-08-02T17:37:11.668Z,1006.57
2022-08-02T22:58:49.252Z,1006.71
